createdAt,value
2023-04-17T00:02:25.707Z,100671.57
2023-04-17T00:07:28.682Z,100670.45
2023-04-17T00:12:31.206Z,100674.02
2023-04-17T00:17:33.836Z,100672.83
2023-04-17T00:22:37.385Z,100675.66
2023-04-17T00:27:40.734Z,100678.98
2023-04-17T00:32:43.486Z,100680.77
2023-04-17T00:37:47.393Z,100682.89
2023-04-17T00:42:53.054Z,100681.31
2023-04-17T00:47:58.673Z,100684.79
2023-04-17T00:53:01.619Z,100691.27
2023-04-17T00:58:04.563Z,100689.11
2023-04-17T01:03:08.475Z,100691.05
2023-04-17T01:08:11.260Z,100692.09
2023-04-17T01:13:13.837Z,100692.32
2023-04-17T01:18:16.592Z,100695.94
2023-04-17T01:23:19.106Z,100698.20
2023-04-17T01:28:21.618Z,100699.98
2023-04-17T01:33:24.115Z,100700.01
2023-04-17T01:38:26.619Z,100703.83
2023-04-17T01:43:29.163Z,100714.23
2023-04-17T01:48:32.144Z,100713.42
2023-04-17T01:53:35.485Z,100712.43
2023-04-17T01:58:37.998Z,100715.44
2023-04-17T02:03:40.629Z,100718.23
2023-04-17T02:08:43.329Z,100727.28
2023-04-17T02:13:45.855Z,100728.10
2023-04-17T02:18:49.599Z,100728.78
2023-04-17T02:23:52.204Z,100731.22
2023-04-17T02:28:54.784Z,100727.21
2023-04-17T02:33:57.392Z,100723.96
2023-04-17T02:38:59.898Z,100725.58
2023-04-17T02:44:02.578Z,100725.47
2023-04-17T02:49:05.109Z,100729.28
2023-04-17T02:54:07.652Z,100729.79
2023-04-17T02:59:10.517Z,100723.70
2023-04-17T03:04:13.363Z,100729.70
2023-04-17T03:09:16.442Z,100726.52
2023-04-17T03:14:18.933Z,100728.77
2023-04-17T03:19:21.477Z,100729.58
2023-04-17T03:24:24.065Z,100730.20
2023-04-17T03:29:26.837Z,100728.39
2023-04-17T03:34:31.624Z,100729.61
2023-04-17T03:39:34.144Z,100730.34
2023-04-17T03:44:36.709Z,100735.05
2023-04-17T03:49:39.196Z,100738.23
2023-04-17T03:54:42.499Z,100743.32
2023-04-17T03:59:45.013Z,100743.98
2023-04-17T04:04:48.281Z,100745.02
2023-04-17T04:09:51.036Z,100745.89
2023-04-17T04:14:53.581Z,100755.25
2023-04-17T04:19:56.126Z,100759.90
2023-04-17T04:24:59.304Z,100761.55
2023-04-17T04:30:03.521Z,100761.31
2023-04-17T04:35:06.633Z,100761.45
2023-04-17T04:40:10.957Z,100762.30
2023-04-17T04:45:13.556Z,100763.24
2023-04-17T04:50:16.489Z,100759.67
2023-04-17T04:55:19.697Z,100770.01
2023-04-17T05:00:23.757Z,100773.84
2023-04-17T05:05:26.402Z,100775.27
2023-04-17T05:10:28.909Z,100784.96
2023-04-17T05:15:31.492Z,100786.21
2023-04-17T05:20:34.045Z,100788.48
2023-04-17T05:25:36.669Z,100792.06
2023-04-17T05:30:39.334Z,100799.10
2023-04-17T05:35:41.897Z,100800.80
2023-04-17T05:40:44.631Z,100803.80
2023-04-17T05:45:51.954Z,100809.35
2023-04-17T05:50:56.435Z,100816.17
2023-04-17T05:55:59.057Z,100820.39
2023-04-17T06:01:02.465Z,100823.73
2023-04-17T06:06:05.413Z,100827.83
2023-04-17T06:11:08.040Z,100829.24
2023-04-17T06:16:10.580Z,100831.23
2023-04-17T06:21:13.346Z,100835.11
2023-04-17T06:26:16.123Z,100835.13
2023-04-17T06:31:18.671Z,100841.20
2023-04-17T06:36:21.288Z,100842.17
2023-04-17T06:41:23.879Z,100847.27
2023-04-17T06:46:26.498Z,100853.02
2023-04-17T06:51:29.254Z,100857.38
2023-04-17T06:56:31.844Z,100858.15
2023-04-17T07:01:35.061Z,100861.06
2023-04-17T07:06:39.417Z,100864.34
2023-04-17T07:11:42.108Z,100867.27
2023-04-17T07:16:44.656Z,100874.44
2023-04-17T07:21:47.230Z,100887.52
2023-04-17T07:26:49.859Z,100888.42
2023-04-17T07:31:52.496Z,100888.92
2023-04-17T07:36:55.226Z,100894.34
2023-04-17T07:41:57.777Z,100895.98
2023-04-17T07:47:00.916Z,100899.91
2023-04-17T07:52:03.524Z,100900.67
2023-04-17T07:57:06.056Z,100907.29
2023-04-17T08:02:08.716Z,100913.30
2023-04-17T08:07:12.606Z,100913.00
2023-04-17T08:12:15.410Z,100916.66
2023-04-17T08:17:22.742Z,100926.36
2023-04-17T08:22:25.978Z,100930.17
2023-04-17T08:27:28.627Z,100934.02
2023-04-17T08:32:38.039Z,100938.16
2023-04-17T08:37:42.307Z,100947.98
2023-04-17T08:42:47.728Z,100955.73
2023-04-17T08:47:50.996Z,100957.15
2023-04-17T08:52:53.924Z,100958.21
2023-04-17T08:58:02.184Z,100962.71
2023-04-17T09:03:08.015Z,100965.17
2023-04-17T09:08:20.986Z,100967.51
2023-04-17T09:13:26.070Z,100968.95
2023-04-17T09:18:33.625Z,100982.02
2023-04-17T09:23:48.911Z,100974.66
2023-04-17T09:29:04.222Z,100971.34
2023-04-17T09:34:11.014Z,100972.52
2023-04-17T09:39:23.897Z,100968.23
2023-04-17T09:44:29.921Z,100970.45
2023-04-17T09:49:38.272Z,100969.63
2023-04-17T09:54:42.739Z,100975.52
2023-04-17T09:59:49.431Z,100975.14
2023-04-17T10:04:52.504Z,100978.02
2023-04-17T10:09:55.605Z,100976.42
2023-04-17T10:14:58.241Z,100982.80
2023-04-17T10:20:20.036Z,100982.05
2023-04-17T10:25:25.210Z,100983.19
2023-04-17T10:30:54.820Z,100982.59
2023-04-17T10:35:58.085Z,100981.60
2023-04-17T10:41:08.430Z,100982.70
2023-04-17T10:46:13.146Z,100987.50
2023-04-17T10:51:21.676Z,100990.91
2023-04-17T10:56:30.771Z,100991.55
2023-04-17T11:01:48.875Z,100990.61
2023-04-17T11:06:55.542Z,100993.30
2023-04-17T11:12:01.819Z,100996.68
2023-04-17T11:17:04.968Z,100999.24
2023-04-17T11:22:10.125Z,101001.39
2023-04-17T11:27:12.819Z,101004.05
2023-04-17T11:32:15.520Z,101004.70
2023-04-17T11:37:18.086Z,101004.96
2023-04-17T11:42:29.659Z,101007.78
2023-04-17T11:47:32.361Z,101009.40
2023-04-17T11:52:34.855Z,101012.95
2023-04-17T11:57:43.532Z,101011.90
2023-04-17T12:02:46.273Z,101013.86
2023-04-17T12:08:00.148Z,101010.98
2023-04-17T12:13:02.747Z,101011.12
2023-04-17T12:18:06.242Z,101011.92
2023-04-17T12:23:08.902Z,101010.79
2023-04-17T12:28:11.427Z,101014.66
2023-04-17T12:33:14.161Z,101011.88
2023-04-17T12:38:17.117Z,101012.44
2023-04-17T12:43:21.212Z,101014.32
2023-04-17T12:48:23.884Z,101013.87
2023-04-17T12:53:26.392Z,101019.55
2023-04-17T12:58:29.034Z,101017.54
2023-04-17T13:03:31.644Z,101020.40
2023-04-17T13:08:34.287Z,101022.15
2023-04-17T13:13:36.796Z,101019.61
2023-04-17T13:18:39.301Z,101023.26
2023-04-17T13:23:41.842Z,101023.89
2023-04-17T13:28:44.412Z,101019.16
2023-04-17T13:33:46.972Z,101018.45
2023-04-17T13:38:49.538Z,101025.90
2023-04-17T13:43:52.145Z,101028.11
2023-04-17T13:48:55.302Z,101029.54
2023-04-17T13:54:00.894Z,101026.00
2023-04-17T13:59:04.113Z,101027.72
2023-04-17T14:04:08.038Z,101028.10
2023-04-17T14:09:11.576Z,101028.83
2023-04-17T14:14:15.330Z,101030.27
2023-04-17T14:19:18.184Z,101027.45
2023-04-17T14:24:20.921Z,101028.42
2023-04-17T14:29:23.485Z,101028.91
2023-04-17T14:34:26.081Z,101028.02
2023-04-17T14:39:30.869Z,101031.25
2023-04-17T14:44:34.063Z,101030.83
2023-04-17T14:49:36.688Z,101029.29
2023-04-17T14:54:39.220Z,101031.79
2023-04-17T14:59:44.289Z,101030.58
2023-04-17T15:04:48.832Z,101031.19
2023-04-17T15:09:51.379Z,101028.55
2023-04-17T15:14:54.086Z,101026.70
2023-04-17T15:20:00.773Z,101026.30
2023-04-17T15:25:03.632Z,101025.91
2023-04-17T15:30:08.887Z,101019.48
2023-04-17T15:35:11.502Z,101015.73
2023-04-17T15:40:14.184Z,101021.00
2023-04-17T15:45:16.829Z,101023.91
2023-04-17T15:50:21.181Z,101024.89
2023-04-17T15:55:24.602Z,101030.33
2023-04-17T16:00:27.466Z,101030.13
2023-04-17T16:05:30.575Z,101026.91
2023-04-17T16:10:34.800Z,101028.56
2023-04-17T16:15:37.369Z,101030.90
2023-04-17T16:20:40.154Z,101032.45
2023-04-17T16:25:42.785Z,101034.52
2023-04-17T16:30:45.406Z,101033.16
2023-04-17T16:35:47.987Z,101036.06
2023-04-17T16:40:53.410Z,101032.42
2023-04-17T16:45:56.357Z,101031.27
2023-04-17T16:51:05.669Z,101033.67
2023-04-17T16:56:08.654Z,101035.85
2023-04-17T17:01:12.172Z,101042.94
2023-04-17T17:06:17.449Z,101049.02
2023-04-17T17:11:20.173Z,101057.54
2023-04-17T17:16:23.013Z,101060.58
2023-04-17T17:21:26.401Z,101061.78
2023-04-17T17:26:29.050Z,101055.84
2023-04-17T17:31:33.053Z,101063.27
2023-04-17T17:36:35.999Z,101062.27
2023-04-17T17:41:38.801Z,101067.90
2023-04-17T17:46:41.687Z,101067.74
2023-04-17T17:51:44.386Z,101074.67
2023-04-17T17:56:47.005Z,101081.05
2023-04-17T18:01:49.793Z,101082.62
2023-04-17T18:06:52.749Z,101087.81
2023-04-17T18:11:55.825Z,101087.95
2023-04-17T18:16:58.369Z,101085.23
2023-04-17T18:22:01.025Z,101085.63
2023-04-17T18:27:04.090Z,101091.27
2023-04-17T18:32:06.615Z,101096.54
2023-04-17T18:37:09.211Z,101097.61
2023-04-17T18:42:11.977Z,101097.98
2023-04-17T18:47:14.626Z,101098.48
2023-04-17T18:52:17.320Z,101098.25
2023-04-17T18:57:20.020Z,101102.21
2023-04-17T19:02:23.209Z,101096.59
2023-04-17T19:07:28.771Z,101096.82
2023-04-17T19:12:31.539Z,101095.64
2023-04-17T19:17:35.181Z,101094.56
2023-04-17T19:22:38.699Z,101103.18
2023-04-17T19:27:41.567Z,101110.06
2023-04-17T19:32:44.677Z,101111.77
2023-04-17T19:37:47.884Z,101110.02
2023-04-17T19:42:51.061Z,101109.99
2023-04-17T19:47:57.279Z,101108.92
2023-04-17T19:53:00.776Z,101113.52
2023-04-17T19:58:03.704Z,101104.61
2023-04-17T20:03:06.487Z,101105.95
2023-04-17T20:08:09.709Z,101105.77
2023-04-17T20:13:14.519Z,101100.39
2023-04-17T20:18:17.664Z,101101.64
2023-04-17T20:23:20.404Z,101103.37
2023-04-17T20:28:23.067Z,101108.60
2023-04-17T20:33:25.765Z,101112.67
2023-04-17T20:38:32.211Z,101108.94
2023-04-17T20:43:34.843Z,101108.83
2023-04-17T20:48:41.812Z,101106.95
2023-04-17T20:53:44.872Z,101106.42
2023-04-17T20:58:49.816Z,101110.23
2023-04-17T21:03:52.777Z,101116.64
2023-04-17T21:08:55.411Z,101122.02
2023-04-17T21:14:00.337Z,101122.70
2023-04-17T21:19:02.934Z,101126.69
2023-04-17T21:24:06.141Z,101131.35
2023-04-17T21:29:10.007Z,101135.48
2023-04-17T21:34:12.782Z,101130.46
2023-04-17T21:39:16.804Z,101136.05
2023-04-17T21:44:19.326Z,101139.42
2023-04-17T21:49:22.713Z,101132.34
2023-04-17T21:54:27.976Z,101133.23
2023-04-17T21:59:30.784Z,101133.63
2023-04-17T22:04:33.361Z,101134.16
2023-04-17T22:09:36.087Z,101137.42
2023-04-17T22:14:40.551Z,101141.20
2023-04-17T22:19:43.123Z,101144.45
2023-04-17T22:24:45.969Z,101140.23
2023-04-17T22:29:48.501Z,101146.13
2023-04-17T22:34:51.036Z,101145.27
2023-04-17T22:39:53.558Z,101147.67
2023-04-17T22:44:56.321Z,101152.34
2023-04-17T22:55:37.346Z,101146.96
2023-04-17T23:00:40.073Z,101146.94
2023-04-17T23:05:42.560Z,101155.77
2023-04-17T23:10:45.220Z,101151.55
2023-04-17T23:15:47.764Z,101153.90
2023-04-17T23:20:50.400Z,101152.93
2023-04-17T23:25:52.994Z,101147.80
2023-04-17T23:30:56.275Z,101143.01
2023-04-17T23:35:59.602Z,101139.77
2023-04-17T23:41:02.162Z,101138.93
2023-04-17T23:46:04.722Z,101144.17
2023-04-17T23:51:07.327Z,101140.93
2023-04-17T23:56:09.915Z,101138.71
